createdAt,value
2022-09-15T00:04:27.513Z,98789.38
2022-09-15T00:09:28.873Z,98803.88
2022-09-15T00:14:30.248Z,98795.13
2022-09-15T00:19:31.604Z,98805.00
2022-09-15T00:24:32.985Z,98814.84
2022-09-15T00:29:35.719Z,98813.75
2022-09-15T00:34:37.077Z,98822.50
2022-09-15T00:39:38.566Z,98816.50
2022-09-15T00:44:58.713Z,98812.94
2022-09-15T00:50:03.692Z,98808.00
2022-09-15T00:55:07.021Z,98805.28
2022-09-15T01:00:13.288Z,98828.28
2022-09-15T01:05:16.406Z,98831.00
2022-09-15T01:10:22.377Z,98824.75
2022-09-15T01:15:28.585Z,98834.59
2022-09-15T01:20:54.661Z,98843.06
2022-09-15T01:26:07.991Z,98847.44
2022-09-15T01:31:15.677Z,98845.81
2022-09-15T01:36:22.978Z,98848.00
2022-09-15T01:41:27.556Z,98847.44
2022-09-15T01:46:31.257Z,98849.63
2022-09-15T01:51:32.613Z,98828.28
2022-09-15T01:56:33.986Z,98834.03
2022-09-15T02:01:49.479Z,98847.19
2022-09-15T02:06:53.113Z,98845.56
2022-09-15T02:12:12.208Z,98837.31
2022-09-15T02:17:15.398Z,98836.50
2022-09-15T02:22:30.998Z,98845.00
2022-09-15T02:27:37.352Z,98851.56
2022-09-15T02:32:40.734Z,98844.47
2022-09-15T02:37:42.173Z,98850.75
2022-09-15T02:42:52.329Z,98850.22
2022-09-15T02:47:53.685Z,98855.94
2022-09-15T02:52:55.444Z,98861.69
2022-09-15T02:57:57.205Z,98859.78
2022-09-15T03:02:58.568Z,98849.66
2022-09-15T03:07:59.932Z,98845.25
2022-09-15T03:13:01.290Z,98863.91
2022-09-15T03:18:02.676Z,98853.25
2022-09-15T03:23:04.120Z,98845.28
2022-09-15T03:28:05.477Z,98858.97
2022-09-15T03:33:06.849Z,98856.50
2022-09-15T03:38:08.230Z,98852.69
2022-09-15T03:43:10.349Z,98841.47
2022-09-15T03:48:11.712Z,98840.63
2022-09-15T03:53:13.085Z,98845.84
2022-09-15T03:58:14.445Z,98855.41
2022-09-15T04:03:15.826Z,98849.41
2022-09-15T04:08:17.189Z,98857.63
2022-09-15T04:13:18.584Z,98851.06
2022-09-15T04:18:19.952Z,98853.78
2022-09-15T04:23:21.317Z,98849.41
2022-09-15T04:28:23.907Z,98850.50
2022-09-15T04:33:25.284Z,98848.88
2022-09-15T04:38:26.649Z,98853.78
2022-09-15T04:43:28.368Z,98848.84
2022-09-15T04:48:30.282Z,98857.91
2022-09-15T04:53:31.697Z,98859.84
2022-09-15T04:58:42.549Z,98862.59
2022-09-15T05:03:44.138Z,98859.84
2022-09-15T05:08:52.689Z,98859.59
2022-09-15T05:13:54.305Z,98860.94
2022-09-15T05:18:57.690Z,98871.63
2022-09-15T05:23:59.072Z,98878.16
2022-09-15T05:29:00.476Z,98873.81
2022-09-15T05:34:04.217Z,98873.78
2022-09-15T05:39:05.576Z,98874.09
2022-09-15T05:44:06.965Z,98886.66
2022-09-15T05:49:08.700Z,98887.75
2022-09-15T05:54:10.056Z,98880.09
2022-09-15T05:59:11.414Z,98879.25
2022-09-15T06:04:12.768Z,98883.66
2022-09-15T06:09:14.124Z,98892.97
2022-09-15T06:14:15.548Z,98907.69
2022-09-15T06:19:16.953Z,98900.03
2022-09-15T06:24:18.360Z,98895.38
2022-09-15T06:29:19.883Z,98903.28
2022-09-15T06:34:21.276Z,98898.91
2022-09-15T06:39:22.917Z,98892.59
2022-09-15T06:44:24.306Z,98884.59
2022-09-15T06:49:25.935Z,98876.81
2022-09-15T06:54:27.308Z,98881.53
2022-09-15T06:59:28.673Z,98893.00
2022-09-15T07:04:30.065Z,98894.63
2022-09-15T07:09:31.636Z,98897.88
2022-09-15T07:14:32.992Z,98895.91
2022-09-15T07:19:34.348Z,98890.16
2022-09-15T07:24:35.708Z,98888.00
2022-09-15T07:29:38.654Z,98894.59
2022-09-15T07:34:40.017Z,98903.31
2022-09-15T07:39:41.385Z,98906.06
2022-09-15T07:44:42.743Z,98921.94
2022-09-15T07:49:44.117Z,98920.28
2022-09-15T07:54:45.480Z,98926.38
2022-09-15T07:59:46.842Z,98934.59
2022-09-15T08:04:48.264Z,98934.31
2022-09-15T08:09:49.632Z,98929.88
2022-09-15T08:14:50.986Z,98934.31
2022-09-15T08:19:52.612Z,98931.16
2022-09-15T08:24:53.978Z,98936.84
2022-09-15T08:29:55.362Z,98939.53
2022-09-15T08:34:56.759Z,98932.50
2022-09-15T08:39:58.158Z,98942.06
2022-09-15T08:45:00.586Z,98951.41
2022-09-15T08:50:20.700Z,98962.66
2022-09-15T08:55:37.458Z,98959.56
2022-09-15T09:00:39.317Z,98963.16
2022-09-15T09:05:47.753Z,98962.53
2022-09-15T09:10:56.745Z,98969.63
2022-09-15T09:16:05.574Z,98983.88
2022-09-15T09:21:16.927Z,98937.88
2022-09-15T09:26:18.315Z,98940.78
2022-09-15T09:31:21.519Z,98935.16
2022-09-15T09:36:22.968Z,98930.38
2022-09-15T09:41:35.463Z,98928.97
2022-09-15T09:46:36.908Z,98936.59
2022-09-15T09:51:47.996Z,98932.16
2022-09-15T09:56:49.541Z,98925.13
2022-09-15T10:02:16.172Z,98930.91
2022-09-15T10:07:22.891Z,98916.06
2022-09-15T10:12:44.440Z,98929.25
2022-09-15T10:17:45.991Z,98920.25
2022-09-15T10:22:47.365Z,98931.25
2022-09-15T10:28:13.982Z,98930.38
2022-09-15T10:33:24.218Z,98926.81
2022-09-15T10:38:41.175Z,98935.94
2022-09-15T10:44:09.620Z,98934.50
2022-09-15T10:49:33.474Z,98935.09
2022-09-15T10:55:01.314Z,98924.91
2022-09-15T11:00:09.740Z,98933.69
2022-09-15T11:05:32.236Z,98925.97
2022-09-15T11:10:59.834Z,98917.75
2022-09-15T11:16:19.987Z,98916.06
2022-09-15T11:21:26.746Z,98920.81
2022-09-15T11:26:32.436Z,98917.50
2022-09-15T11:31:36.473Z,98912.31
2022-09-15T11:36:47.437Z,98910.13
2022-09-15T11:41:56.169Z,98907.63
2022-09-15T11:47:16.901Z,98914.78
2022-09-15T11:52:36.457Z,98901.06
2022-09-15T11:57:41.576Z,98907.94
2022-09-15T12:02:48.807Z,98895.09
2022-09-15T12:07:53.240Z,98899.66
2022-09-15T12:12:54.638Z,98918.63
2022-09-15T12:18:27.301Z,98931.84
2022-09-15T12:23:40.538Z,98928.56
2022-09-15T12:28:57.779Z,98919.00
2022-09-15T12:34:04.588Z,98917.66
2022-09-15T12:39:28.801Z,98924.25
2022-09-15T12:44:34.708Z,98919.91
2022-09-15T12:49:41.872Z,98921.78
2022-09-15T12:54:43.425Z,98938.06
2022-09-15T12:59:44.782Z,98925.97
2022-09-15T13:04:57.400Z,98921.59
2022-09-15T13:10:26.945Z,98926.22
2022-09-15T13:15:28.349Z,98892.53
2022-09-15T13:20:31.583Z,98899.13
2022-09-15T13:25:32.949Z,98918.56
2022-09-15T13:31:01.800Z,98945.41
2022-09-15T13:36:15.058Z,98931.50
2022-09-15T13:41:34.670Z,98940.00
2022-09-15T13:47:03.939Z,98942.38
2022-09-15T13:52:23.249Z,98948.72
2022-09-15T13:58:54.227Z,98958.56
2022-09-15T14:02:49.639Z,98952.28
2022-09-15T14:08:01.254Z,98943.00
2022-09-15T14:13:02.992Z,98946.00
2022-09-15T14:18:04.412Z,98947.94
2022-09-15T14:23:14.698Z,98936.69
2022-09-15T14:28:18.844Z,98942.72
2022-09-15T14:33:20.356Z,98949.81
2022-09-15T14:38:22.738Z,98955.28
2022-09-15T14:43:30.246Z,98953.59
2022-09-15T14:48:31.840Z,98953.91
2022-09-15T14:53:35.267Z,98951.72
2022-09-15T14:58:44.506Z,98949.28
2022-09-15T15:04:05.856Z,98938.59
2022-09-15T15:09:21.121Z,98931.19
2022-09-15T15:19:37.481Z,98938.59
2022-09-15T15:24:48.492Z,98918.88
2022-09-15T15:29:49.849Z,98925.47
2022-09-15T15:34:55.645Z,98929.56
2022-09-15T15:39:58.011Z,98926.31
2022-09-15T15:45:09.385Z,98926.34
2022-09-15T15:50:14.848Z,98923.84
2022-09-15T15:55:18.212Z,98940.84
2022-09-15T16:00:31.624Z,98935.28
2022-09-15T16:05:33.085Z,98927.06
2022-09-15T16:10:39.003Z,98922.44
2022-09-15T16:15:40.360Z,98924.63
2022-09-15T16:20:41.812Z,98925.47
2022-09-15T16:25:57.490Z,98934.50
2022-09-15T16:30:59.197Z,98933.66
2022-09-15T16:36:06.754Z,98934.72
2022-09-15T16:41:15.663Z,98933.09
2022-09-15T16:46:17.377Z,98937.22
2022-09-15T16:51:28.837Z,98940.22
2022-09-15T16:56:32.673Z,98933.94
2022-09-15T17:01:34.059Z,98946.00
2022-09-15T17:06:35.461Z,98936.66
2022-09-15T17:11:36.820Z,98937.22
2022-09-15T17:16:38.190Z,98937.78
2022-09-15T17:21:39.545Z,98947.06
2022-09-15T17:26:40.913Z,98957.50
2022-09-15T17:31:42.336Z,98961.31
2022-09-15T17:36:43.752Z,98971.72
2022-09-15T17:41:46.941Z,98976.09
2022-09-15T17:46:48.337Z,98970.94
2022-09-15T17:51:49.859Z,98979.66
2022-09-15T17:56:51.232Z,98970.34
2022-09-15T18:01:52.694Z,98974.75
2022-09-15T18:06:54.267Z,98973.09
2022-09-15T18:11:55.629Z,98978.59
2022-09-15T18:16:57.040Z,98978.28
2022-09-15T18:21:58.396Z,98990.34
2022-09-15T18:26:59.765Z,98986.53
2022-09-15T18:32:02.945Z,98997.75
2022-09-15T18:37:04.437Z,98998.84
2022-09-15T18:42:05.844Z,98994.22
2022-09-15T18:47:07.206Z,99001.28
2022-09-15T18:52:08.561Z,98991.47
2022-09-15T18:57:09.920Z,99000.75
2022-09-15T19:02:11.874Z,99005.97
2022-09-15T19:07:13.357Z,99011.69
2022-09-15T19:12:14.743Z,99005.72
2022-09-15T19:17:16.193Z,99012.00
2022-09-15T19:22:17.549Z,99017.47
2022-09-15T19:27:18.924Z,99006.53
2022-09-15T19:32:20.908Z,99021.84
2022-09-15T19:37:22.404Z,99015.28
2022-09-15T19:42:23.773Z,99015.28
2022-09-15T19:47:25.136Z,99015.28
2022-09-15T19:52:27.446Z,99020.50
2022-09-15T19:57:28.841Z,99025.13
2022-09-15T20:02:30.279Z,99026.78
2022-09-15T20:07:31.795Z,99027.88
2022-09-15T20:12:33.164Z,99030.34
2022-09-15T20:17:34.571Z,99032.81
2022-09-15T20:22:35.988Z,99037.16
2022-09-15T20:27:38.069Z,99036.09
2022-09-15T20:32:39.590Z,99042.13
2022-09-15T20:37:41.756Z,99032.53
2022-09-15T20:42:43.125Z,99024.88
2022-09-15T20:47:44.481Z,99023.22
2022-09-15T20:52:45.844Z,99035.25
2022-09-15T20:57:47.588Z,99042.66
2022-09-15T21:02:51.853Z,99040.22
2022-09-15T21:07:53.229Z,99056.91
2022-09-15T21:12:54.977Z,99054.97
2022-09-15T21:17:56.402Z,99067.03
2022-09-15T21:22:57.757Z,99068.13
2022-09-15T21:27:59.412Z,99079.34
2022-09-15T21:33:00.984Z,99069.72
2022-09-15T21:38:02.345Z,99073.31
2022-09-15T21:43:03.697Z,99070.84
2022-09-15T21:48:05.060Z,99081.81
2022-09-15T21:53:07.332Z,99080.97
2022-09-15T21:58:08.765Z,99079.88
2022-09-15T22:03:10.780Z,99090.25
2022-09-15T22:08:15.955Z,99094.94
2022-09-15T22:13:17.330Z,99092.72
2022-09-15T22:18:18.684Z,99097.41
2022-09-15T22:23:20.050Z,99111.63
2022-09-15T22:28:21.425Z,99093.28
2022-09-15T22:33:22.817Z,99095.22
2022-09-15T22:38:24.624Z,99102.56
2022-09-15T22:43:25.985Z,99098.78
2022-09-15T22:48:27.721Z,99094.34
2022-09-15T22:53:29.080Z,99101.19
2022-09-15T22:58:31.693Z,99110.78
2022-09-15T23:03:33.162Z,99120.91
2022-09-15T23:08:34.537Z,99113.78
2022-09-15T23:13:36.066Z,99114.63
2022-09-15T23:18:37.424Z,99122.28
2022-09-15T23:23:39.518Z,99126.09
2022-09-15T23:28:40.889Z,99122.84
2022-09-15T23:33:42.321Z,99136.78
2022-09-15T23:38:44.161Z,99131.59
2022-09-15T23:43:45.805Z,99130.75
2022-09-15T23:48:47.164Z,99118.97
2022-09-15T23:53:48.596Z,99106.38
2022-09-15T23:58:49.957Z,99114.06
